sensor_id;sensor_type;location;lat;lon;timestamp;pressure;altitude;pressure_sealevel;temperature;humidity
4745;BME280;2386;42.138;24.746;2023-03-15T00:01:32;98770.44;;;8.39;58.70
4745;BME280;2386;42.138;24.746;2023-03-15T00:03:58;98768.22;;;8.36;58.97
4745;BME280;2386;42.138;24.746;2023-03-15T00:06:23;98772.66;;;8.31;60.18
4745;BME280;2386;42.138;24.746;2023-03-15T00:08:49;98767.50;;;8.17;61.15
4745;BME280;2386;42.138;24.746;2023-03-15T00:11:16;98769.28;;;8.47;59.07
4745;BME280;2386;42.138;24.746;2023-03-15T00:13:42;98771.25;;;8.51;59.28
4745;BME280;2386;42.138;24.746;2023-03-15T00:16:08;98768.69;;;8.33;60.39
4745;BME280;2386;42.138;24.746;2023-03-15T00:18:33;98773.25;;;8.56;59.05
4745;BME280;2386;42.138;24.746;2023-03-15T00:20:58;98769.13;;;8.65;59.17
4745;BME280;2386;42.138;24.746;2023-03-15T00:23:24;98758.81;;;8.50;60.47
4745;BME280;2386;42.138;24.746;2023-03-15T00:25:51;98765.84;;;8.51;59.94
4745;BME280;2386;42.138;24.746;2023-03-15T00:28:16;98758.56;;;8.52;60.75
4745;BME280;2386;42.138;24.746;2023-03-15T00:30:42;98754.19;;;8.63;59.65
4745;BME280;2386;42.138;24.746;2023-03-15T00:33:10;98756.78;;;8.57;60.43
4745;BME280;2386;42.138;24.746;2023-03-15T00:35:39;98744.81;;;8.30;62.01
4745;BME280;2386;42.138;24.746;2023-03-15T00:38:05;98753.22;;;8.17;63.44
4745;BME280;2386;42.138;24.746;2023-03-15T00:40:30;98757.28;;;8.19;63.14
4745;BME280;2386;42.138;24.746;2023-03-15T00:42:56;98740.38;;;8.24;62.38
4745;BME280;2386;42.138;24.746;2023-03-15T00:45:22;98726.19;;;8.17;62.64
4745;BME280;2386;42.138;24.746;2023-03-15T00:47:49;98742.97;;;8.19;63.36
4745;BME280;2386;42.138;24.746;2023-03-15T00:50:15;98731.03;;;8.15;64.13
4745;BME280;2386;42.138;24.746;2023-03-15T00:52:40;98743.66;;;8.26;63.38
4745;BME280;2386;42.138;24.746;2023-03-15T00:55:13;98734.97;;;8.24;63.32
4745;BME280;2386;42.138;24.746;2023-03-15T00:57:41;98739.72;;;8.17;64.54
4745;BME280;2386;42.138;24.746;2023-03-15T01:00:09;98746.16;;;8.16;64.75
4745;BME280;2386;42.138;24.746;2023-03-15T01:02:35;98725.13;;;8.18;64.27
4745;BME280;2386;42.138;24.746;2023-03-15T01:05:04;98712.69;;;8.17;64.29
4745;BME280;2386;42.138;24.746;2023-03-15T01:07:30;98731.72;;;8.10;65.09
4745;BME280;2386;42.138;24.746;2023-03-15T01:09:58;98716.72;;;7.91;65.98
4745;BME280;2386;42.138;24.746;2023-03-15T01:12:23;98711.91;;;7.93;66.81
4745;BME280;2386;42.138;24.746;2023-03-15T01:14:48;98717.53;;;8.03;65.17
4745;BME280;2386;42.138;24.746;2023-03-15T01:17:14;98712.47;;;7.95;65.41
4745;BME280;2386;42.138;24.746;2023-03-15T01:19:39;98709.31;;;7.86;66.83
4745;BME280;2386;42.138;24.746;2023-03-15T01:22:04;98713.44;;;7.77;67.05
4745;BME280;2386;42.138;24.746;2023-03-15T01:24:30;98709.91;;;7.77;66.86
4745;BME280;2386;42.138;24.746;2023-03-15T01:26:55;98704.50;;;7.65;67.74
4745;BME280;2386;42.138;24.746;2023-03-15T01:29:20;98721.06;;;7.69;68.46
4745;BME280;2386;42.138;24.746;2023-03-15T01:31:46;98706.63;;;7.63;69.00
4745;BME280;2386;42.138;24.746;2023-03-15T01:34:11;98704.03;;;7.68;69.50
4745;BME280;2386;42.138;24.746;2023-03-15T01:36:36;98694.66;;;7.59;70.19
4745;BME280;2386;42.138;24.746;2023-03-15T01:39:02;98696.53;;;7.70;70.35
4745;BME280;2386;42.138;24.746;2023-03-15T01:41:27;98689.50;;;7.69;70.46
4745;BME280;2386;42.138;24.746;2023-03-15T01:43:53;98697.69;;;7.74;70.36
4745;BME280;2386;42.138;24.746;2023-03-15T01:49:29;98692.06;;;7.64;71.77
4745;BME280;2386;42.138;24.746;2023-03-15T01:52:06;98692.28;;;7.51;71.76
4745;BME280;2386;42.138;24.746;2023-03-15T01:54:48;98693.22;;;7.45;73.16
4745;BME280;2386;42.138;24.746;2023-03-15T01:57:18;98696.88;;;7.50;73.63
4745;BME280;2386;42.138;24.746;2023-03-15T01:59:58;98703.69;;;7.53;74.27
4745;BME280;2386;42.138;24.746;2023-03-15T02:02:26;98692.63;;;7.43;74.91
4745;BME280;2386;42.138;24.746;2023-03-15T02:05:00;98695.94;;;7.56;74.11
4745;BME280;2386;42.138;24.746;2023-03-15T02:07:31;98686.31;;;7.49;71.42
4745;BME280;2386;42.138;24.746;2023-03-15T02:10:08;98688.53;;;7.52;70.80
4745;BME280;2386;42.138;24.746;2023-03-15T02:12:39;98695.47;;;7.36;70.94
4745;BME280;2386;42.138;24.746;2023-03-15T02:15:06;98692.19;;;7.34;70.44
4745;BME280;2386;42.138;24.746;2023-03-15T02:17:35;98691.94;;;7.47;69.43
4745;BME280;2386;42.138;24.746;2023-03-15T02:23:20;98683.16;;;7.29;70.35
4745;BME280;2386;42.138;24.746;2023-03-15T02:25:51;98668.28;;;7.38;68.47
4745;BME280;2386;42.138;24.746;2023-03-15T02:28:18;98674.72;;;7.37;68.82
4745;BME280;2386;42.138;24.746;2023-03-15T02:30:45;98678.94;;;7.33;69.61
4745;BME280;2386;42.138;24.746;2023-03-15T02:33:21;98674.38;;;7.33;69.59
4745;BME280;2386;42.138;24.746;2023-03-15T02:35:48;98673.28;;;7.22;69.20
4745;BME280;2386;42.138;24.746;2023-03-15T02:38:13;98670.00;;;7.20;69.30
4745;BME280;2386;42.138;24.746;2023-03-15T02:40:39;98663.31;;;7.23;68.99
4745;BME280;2386;42.138;24.746;2023-03-15T02:43:13;98674.56;;;7.20;68.90
4745;BME280;2386;42.138;24.746;2023-03-15T02:45:40;98673.63;;;7.14;69.64
4745;BME280;2386;42.138;24.746;2023-03-15T02:48:06;98669.75;;;7.10;69.11
4745;BME280;2386;42.138;24.746;2023-03-15T02:50:33;98666.31;;;6.91;70.43
4745;BME280;2386;42.138;24.746;2023-03-15T02:52:58;98670.03;;;6.79;71.68
4745;BME280;2386;42.138;24.746;2023-03-15T02:55:23;98671.47;;;6.51;73.61
4745;BME280;2386;42.138;24.746;2023-03-15T02:57:49;98666.72;;;6.35;74.60
4745;BME280;2386;42.138;24.746;2023-03-15T03:00:14;98659.84;;;6.21;76.33
4745;BME280;2386;42.138;24.746;2023-03-15T03:02:42;98654.84;;;6.54;74.23
4745;BME280;2386;42.138;24.746;2023-03-15T03:05:09;98659.00;;;6.39;74.43
4745;BME280;2386;42.138;24.746;2023-03-15T03:07:35;98656.13;;;6.52;74.61
4745;BME280;2386;42.138;24.746;2023-03-15T03:10:01;98648.31;;;6.32;75.53
4745;BME280;2386;42.138;24.746;2023-03-15T03:12:26;98650.00;;;6.45;75.47
4745;BME280;2386;42.138;24.746;2023-03-15T03:14:52;98650.81;;;6.45;76.20
4745;BME280;2386;42.138;24.746;2023-03-15T03:17:17;98660.41;;;6.41;77.38
4745;BME280;2386;42.138;24.746;2023-03-15T03:19:43;98657.59;;;6.36;78.86
4745;BME280;2386;42.138;24.746;2023-03-15T03:22:08;98646.94;;;6.41;80.38
4745;BME280;2386;42.138;24.746;2023-03-15T03:24:34;98646.66;;;6.31;81.50
4745;BME280;2386;42.138;24.746;2023-03-15T03:26:59;98637.09;;;6.35;82.83
4745;BME280;2386;42.138;24.746;2023-03-15T03:29:25;98640.09;;;6.57;82.69
4745;BME280;2386;42.138;24.746;2023-03-15T03:31:51;98650.47;;;6.42;84.44
4745;BME280;2386;42.138;24.746;2023-03-15T03:34:17;98633.44;;;6.59;83.53
4745;BME280;2386;42.138;24.746;2023-03-15T03:36:44;98642.69;;;6.64;83.04
4745;BME280;2386;42.138;24.746;2023-03-15T03:39:09;98637.56;;;6.74;83.04
4745;BME280;2386;42.138;24.746;2023-03-15T03:41:35;98638.41;;;6.86;83.31
4745;BME280;2386;42.138;24.746;2023-03-15T03:44:00;98640.97;;;6.81;83.33
4745;BME280;2386;42.138;24.746;2023-03-15T03:46:26;98638.50;;;6.68;84.53
4745;BME280;2386;42.138;24.746;2023-03-15T03:48:53;98628.19;;;6.65;85.65
4745;BME280;2386;42.138;24.746;2023-03-15T03:51:18;98625.72;;;6.63;86.62
4745;BME280;2386;42.138;24.746;2023-03-15T03:53:43;98613.72;;;6.47;87.01
4745;BME280;2386;42.138;24.746;2023-03-15T03:56:09;98616.88;;;6.44;88.29
4745;BME280;2386;42.138;24.746;2023-03-15T03:58:34;98641.78;;;6.40;88.43
4745;BME280;2386;42.138;24.746;2023-03-15T04:00:59;98648.16;;;6.27;89.65
4745;BME280;2386;42.138;24.746;2023-03-15T04:03:25;98646.22;;;6.34;88.74
4745;BME280;2386;42.138;24.746;2023-03-15T04:05:54;98647.56;;;6.25;90.13
4745;BME280;2386;42.138;24.746;2023-03-15T04:08:20;98643.91;;;6.19;90.52
4745;BME280;2386;42.138;24.746;2023-03-15T04:10:51;98639.50;;;6.25;90.97
4745;BME280;2386;42.138;24.746;2023-03-15T04:13:18;98635.72;;;6.44;89.25
4745;BME280;2386;42.138;24.746;2023-03-15T04:15:43;98640.31;;;6.25;90.79
4745;BME280;2386;42.138;24.746;2023-03-15T04:18:08;98632.84;;;6.09;92.25
4745;BME280;2386;42.138;24.746;2023-03-15T04:20:34;98634.19;;;6.18;91.93
4745;BME280;2386;42.138;24.746;2023-03-15T04:23:00;98632.91;;;6.21;91.84
4745;BME280;2386;42.138;24.746;2023-03-15T04:25:26;98623.34;;;6.25;91.67
4745;BME280;2386;42.138;24.746;2023-03-15T04:27:52;98609.09;;;6.36;91.49
4745;BME280;2386;42.138;24.746;2023-03-15T04:30:28;98601.59;;;6.08;92.45
4745;BME280;2386;42.138;24.746;2023-03-15T04:32:54;98605.63;;;6.17;91.92
4745;BME280;2386;42.138;24.746;2023-03-15T04:35:27;98601.53;;;6.15;92.01
4745;BME280;2386;42.138;24.746;2023-03-15T04:37:52;98609.41;;;6.28;91.26
4745;BME280;2386;42.138;24.746;2023-03-15T04:40:18;98624.56;;;6.41;90.43
4745;BME280;2386;42.138;24.746;2023-03-15T04:42:43;98624.63;;;6.52;90.11
4745;BME280;2386;42.138;24.746;2023-03-15T04:45:09;98624.34;;;6.42;90.00
4745;BME280;2386;42.138;24.746;2023-03-15T04:47:35;98628.31;;;6.40;90.22
4745;BME280;2386;42.138;24.746;2023-03-15T04:50:00;98627.09;;;6.24;91.63
4745;BME280;2386;42.138;24.746;2023-03-15T04:52:26;98631.06;;;6.51;89.26
4745;BME280;2386;42.138;24.746;2023-03-15T04:54:51;98618.88;;;6.49;88.69
4745;BME280;2386;42.138;24.746;2023-03-15T04:57:16;98621.16;;;6.34;89.33
4745;BME280;2386;42.138;24.746;2023-03-15T04:59:42;98623.06;;;6.15;93.10
4745;BME280;2386;42.138;24.746;2023-03-15T05:02:07;98627.78;;;6.01;93.61
4745;BME280;2386;42.138;24.746;2023-03-15T05:04:33;98643.53;;;6.16;93.76
4745;BME280;2386;42.138;24.746;2023-03-15T05:06:58;98626.63;;;6.27;91.44
4745;BME280;2386;42.138;24.746;2023-03-15T05:09:23;98622.13;;;6.39;91.16
4745;BME280;2386;42.138;24.746;2023-03-15T05:11:49;98618.00;;;6.37;89.15
4745;BME280;2386;42.138;24.746;2023-03-15T05:14:15;98624.63;;;6.52;89.38
4745;BME280;2386;42.138;24.746;2023-03-15T05:16:40;98643.00;;;6.25;91.44
4745;BME280;2386;42.138;24.746;2023-03-15T05:19:07;98646.03;;;6.47;90.75
4745;BME280;2386;42.138;24.746;2023-03-15T05:21:32;98646.22;;;6.34;92.25
4745;BME280;2386;42.138;24.746;2023-03-15T05:23:58;98640.69;;;6.29;92.89
4745;BME280;2386;42.138;24.746;2023-03-15T05:26:23;98633.78;;;6.33;91.33
4745;BME280;2386;42.138;24.746;2023-03-15T05:28:49;98642.25;;;6.37;92.33
4745;BME280;2386;42.138;24.746;2023-03-15T05:31:16;98640.06;;;6.45;90.79
4745;BME280;2386;42.138;24.746;2023-03-15T05:33:41;98645.50;;;6.57;89.12
4745;BME280;2386;42.138;24.746;2023-03-15T05:36:11;98642.16;;;6.43;89.98
4745;BME280;2386;42.138;24.746;2023-03-15T05:38:38;98631.06;;;6.51;90.74
4745;BME280;2386;42.138;24.746;2023-03-15T05:41:04;98641.59;;;6.53;89.04
4745;BME280;2386;42.138;24.746;2023-03-15T05:43:30;98634.84;;;6.32;92.35
4745;BME280;2386;42.138;24.746;2023-03-15T05:45:56;98624.00;;;6.39;91.76
4745;BME280;2386;42.138;24.746;2023-03-15T05:48:21;98624.75;;;6.57;89.20
4745;BME280;2386;42.138;24.746;2023-03-15T05:50:47;98622.19;;;6.63;88.51
4745;BME280;2386;42.138;24.746;2023-03-15T05:53:12;98628.50;;;6.56;88.24
4745;BME280;2386;42.138;24.746;2023-03-15T05:55:37;98625.25;;;6.36;88.71
4745;BME280;2386;42.138;24.746;2023-03-15T05:58:03;98622.13;;;6.39;89.15
4745;BME280;2386;42.138;24.746;2023-03-15T06:00:28;98617.31;;;6.41;90.54
4745;BME280;2386;42.138;24.746;2023-03-15T06:02:54;98615.81;;;6.45;89.20
4745;BME280;2386;42.138;24.746;2023-03-15T06:05:19;98624.63;;;6.52;89.29
4745;BME280;2386;42.138;24.746;2023-03-15T06:07:45;98626.63;;;6.57;88.69
4745;BME280;2386;42.138;24.746;2023-03-15T06:10:10;98627.91;;;6.54;87.91
4745;BME280;2386;42.138;24.746;2023-03-15T06:12:36;98635.22;;;6.66;88.63
4745;BME280;2386;42.138;24.746;2023-03-15T06:15:02;98633.09;;;6.68;87.53
4745;BME280;2386;42.138;24.746;2023-03-15T06:17:27;98622.44;;;6.73;87.23
4745;BME280;2386;42.138;24.746;2023-03-15T06:19:53;98628.53;;;6.80;86.76
4745;BME280;2386;42.138;24.746;2023-03-15T06:22:18;98627.94;;;6.78;86.18
4745;BME280;2386;42.138;24.746;2023-03-15T06:24:45;98629.13;;;6.82;86.84
4745;BME280;2386;42.138;24.746;2023-03-15T06:27:10;98624.91;;;6.74;87.96
4745;BME280;2386;42.138;24.746;2023-03-15T06:29:37;98623.28;;;6.85;87.66
4745;BME280;2386;42.138;24.746;2023-03-15T06:32:03;98624.97;;;7.09;85.94
4745;BME280;2386;42.138;24.746;2023-03-15T06:34:28;98623.31;;;6.97;86.56
4745;BME280;2386;42.138;24.746;2023-03-15T06:36:54;98627.66;;;7.09;86.90
4745;BME280;2386;42.138;24.746;2023-03-15T06:39:20;98617.94;;;7.08;84.55
4745;BME280;2386;42.138;24.746;2023-03-15T06:41:45;98633.78;;;7.16;83.92
4745;BME280;2386;42.138;24.746;2023-03-15T06:44:10;98628.72;;;7.20;83.84
4745;BME280;2386;42.138;24.746;2023-03-15T06:46:36;98632.00;;;7.10;84.99
4745;BME280;2386;42.138;24.746;2023-03-15T06:49:02;98631.06;;;7.16;85.19
4745;BME280;2386;42.138;24.746;2023-03-15T06:51:28;98632.13;;;7.27;84.28
4745;BME280;2386;42.138;24.746;2023-03-15T06:53:54;98638.69;;;7.43;83.22
4745;BME280;2386;42.138;24.746;2023-03-15T06:56:19;98642.69;;;7.40;82.16
4745;BME280;2386;42.138;24.746;2023-03-15T06:58:44;98639.16;;;7.51;82.56
4745;BME280;2386;42.138;24.746;2023-03-15T07:01:13;98627.66;;;7.68;79.86
4745;BME280;2386;42.138;24.746;2023-03-15T07:03:40;98636.44;;;7.63;80.18
4745;BME280;2386;42.138;24.746;2023-03-15T07:06:05;98626.84;;;7.55;82.08
4745;BME280;2386;42.138;24.746;2023-03-15T07:08:31;98621.91;;;7.64;82.57
4745;BME280;2386;42.138;24.746;2023-03-15T07:10:56;98619.66;;;7.73;81.42
4745;BME280;2386;42.138;24.746;2023-03-15T07:13:22;98610.84;;;7.77;80.89
4745;BME280;2386;42.138;24.746;2023-03-15T07:15:54;98620.00;;;7.76;80.21
4745;BME280;2386;42.138;24.746;2023-03-15T07:18:21;98624.34;;;7.77;79.37
4745;BME280;2386;42.138;24.746;2023-03-15T07:20:46;98623.78;;;7.75;79.65
4745;BME280;2386;42.138;24.746;2023-03-15T07:23:12;98624.34;;;7.77;80.23
4745;BME280;2386;42.138;24.746;2023-03-15T07:25:37;98624.56;;;7.87;80.89
4745;BME280;2386;42.138;24.746;2023-03-15T07:28:03;98627.75;;;7.84;80.92
4745;BME280;2386;42.138;24.746;2023-03-15T07:30:28;98618.66;;;8.02;79.02
4745;BME280;2386;42.138;24.746;2023-03-15T07:32:53;98614.28;;;8.13;78.04
4745;BME280;2386;42.138;24.746;2023-03-15T07:35:19;98611.19;;;8.21;78.69
4745;BME280;2386;42.138;24.746;2023-03-15T07:37:45;98610.81;;;8.29;76.89
4745;BME280;2386;42.138;24.746;2023-03-15T07:40:11;98604.56;;;8.12;78.11
4745;BME280;2386;42.138;24.746;2023-03-15T07:42:40;98611.44;;;8.19;78.41
4745;BME280;2386;42.138;24.746;2023-03-15T07:45:07;98601.41;;;8.32;77.92
4745;BME280;2386;42.138;24.746;2023-03-15T07:47:33;98605.06;;;8.37;76.85
4745;BME280;2386;42.138;24.746;2023-03-15T07:49:58;98604.09;;;8.43;76.26
4745;BME280;2386;42.138;24.746;2023-03-15T07:52:24;98611.47;;;8.48;76.25
4745;BME280;2386;42.138;24.746;2023-03-15T07:54:50;98602.16;;;8.55;76.80
4745;BME280;2386;42.138;24.746;2023-03-15T07:57:15;98590.47;;;8.67;76.35
4745;BME280;2386;42.138;24.746;2023-03-15T07:59:41;98597.50;;;8.68;75.91
4745;BME280;2386;42.138;24.746;2023-03-15T08:02:08;98597.69;;;8.78;75.22
4745;BME280;2386;42.138;24.746;2023-03-15T08:04:33;98592.25;;;8.61;75.66
4745;BME280;2386;42.138;24.746;2023-03-15T08:06:59;98597.91;;;8.60;75.57
4745;BME280;2386;42.138;24.746;2023-03-15T08:09:25;98598.91;;;8.70;75.89
4745;BME280;2386;42.138;24.746;2023-03-15T08:11:50;98575.88;;;8.68;75.86
4745;BME280;2386;42.138;24.746;2023-03-15T08:14:16;98570.56;;;8.73;76.42
4745;BME280;2386;42.138;24.746;2023-03-15T08:16:41;98550.00;;;8.88;75.52
4745;BME280;2386;42.138;24.746;2023-03-15T08:19:07;98538.94;;;8.90;74.21
4745;BME280;2386;42.138;24.746;2023-03-15T08:21:33;98546.13;;;9.01;74.36
4745;BME280;2386;42.138;24.746;2023-03-15T08:23:59;98538.91;;;9.07;74.99
4745;BME280;2386;42.138;24.746;2023-03-15T08:26:25;98535.09;;;9.25;72.12
4745;BME280;2386;42.138;24.746;2023-03-15T08:28:50;98537.25;;;9.22;72.69
4745;BME280;2386;42.138;24.746;2023-03-15T08:31:16;98536.56;;;9.32;73.06
4745;BME280;2386;42.138;24.746;2023-03-15T08:33:41;98524.56;;;9.45;71.68
4745;BME280;2386;42.138;24.746;2023-03-15T08:36:07;98515.59;;;9.61;71.53
4745;BME280;2386;42.138;24.746;2023-03-15T08:38:33;98528.16;;;9.72;71.20
4745;BME280;2386;42.138;24.746;2023-03-15T08:40:58;98514.91;;;9.76;68.46
4745;BME280;2386;42.138;24.746;2023-03-15T08:43:24;98516.38;;;9.83;66.93
4745;BME280;2386;42.138;24.746;2023-03-15T08:45:50;98520.66;;;9.79;66.85
4745;BME280;2386;42.138;24.746;2023-03-15T08:48:15;98516.25;;;9.73;66.91
4745;BME280;2386;42.138;24.746;2023-03-15T08:50:41;98507.78;;;9.65;67.28
4745;BME280;2386;42.138;24.746;2023-03-15T08:53:07;98515.94;;;9.70;67.36
4745;BME280;2386;42.138;24.746;2023-03-15T08:55:36;98531.41;;;9.74;68.33
4745;BME280;2386;42.138;24.746;2023-03-15T08:58:02;98523.09;;;9.81;66.51
4745;BME280;2386;42.138;24.746;2023-03-15T09:00:29;98530.66;;;9.79;67.40
4745;BME280;2386;42.138;24.746;2023-03-15T09:02:54;98529.28;;;9.98;66.01
4745;BME280;2386;42.138;24.746;2023-03-15T09:05:20;98523.41;;;9.84;65.99
4745;BME280;2386;42.138;24.746;2023-03-15T09:07:47;98524.03;;;9.92;66.17
4745;BME280;2386;42.138;24.746;2023-03-15T09:10:14;98519.75;;;9.96;64.52
4745;BME280;2386;42.138;24.746;2023-03-15T09:12:47;98501.25;;;9.87;64.77
4745;BME280;2386;42.138;24.746;2023-03-15T09:15:13;98495.00;;;9.87;63.81
4745;BME280;2386;42.138;24.746;2023-03-15T09:17:39;98492.31;;;9.87;65.29
4745;BME280;2386;42.138;24.746;2023-03-15T09:20:07;98476.47;;;10.01;65.14
4745;BME280;2386;42.138;24.746;2023-03-15T09:22:39;98497.75;;;10.14;65.91
4745;BME280;2386;42.138;24.746;2023-03-15T09:25:06;98483.88;;;10.32;64.35
4745;BME280;2386;42.138;24.746;2023-03-15T09:27:32;98484.56;;;10.54;61.44
4745;BME280;2386;42.138;24.746;2023-03-15T09:29:58;98480.41;;;10.74;61.17
4745;BME280;2386;42.138;24.746;2023-03-15T09:32:23;98489.13;;;10.81;60.35
4745;BME280;2386;42.138;24.746;2023-03-15T09:34:49;98483.28;;;10.99;60.26
4745;BME280;2386;42.138;24.746;2023-03-15T09:37:15;98477.94;;;11.09;58.89
4745;BME280;2386;42.138;24.746;2023-03-15T09:39:40;98497.31;;;11.33;57.27
4745;BME280;2386;42.138;24.746;2023-03-15T09:42:19;98495.97;;;11.36;57.62
4745;BME280;2386;42.138;24.746;2023-03-15T09:44:52;98479.09;;;11.29;57.56
4745;BME280;2386;42.138;24.746;2023-03-15T09:50:50;98467.81;;;11.52;55.13
4745;BME280;2386;42.138;24.746;2023-03-15T09:53:27;98462.88;;;11.39;54.70
4745;BME280;2386;42.138;24.746;2023-03-15T09:55:53;98469.50;;;11.63;55.12
4745;BME280;2386;42.138;24.746;2023-03-15T09:58:24;98467.84;;;11.62;53.98
4745;BME280;2386;42.138;24.746;2023-03-15T10:01:01;98460.50;;;11.58;54.30
4745;BME280;2386;42.138;24.746;2023-03-15T10:03:49;98460.84;;;11.76;54.80
4745;BME280;2386;42.138;24.746;2023-03-15T10:06:28;98450.31;;;11.95;53.51
4745;BME280;2386;42.138;24.746;2023-03-15T10:08:59;98442.41;;;11.94;52.58
4745;BME280;2386;42.138;24.746;2023-03-15T10:11:33;98447.31;;;11.87;53.48
4745;BME280;2386;42.138;24.746;2023-03-15T10:16:53;98431.03;;;12.02;53.02
4745;BME280;2386;42.138;24.746;2023-03-15T10:19:39;98433.78;;;12.22;51.61
4745;BME280;2386;42.138;24.746;2023-03-15T10:24:44;98444.13;;;12.35;53.31
4745;BME280;2386;42.138;24.746;2023-03-15T10:29:51;98444.09;;;12.71;51.37
4745;BME280;2386;42.138;24.746;2023-03-15T10:32:18;98436.50;;;12.37;50.00
4745;BME280;2386;42.138;24.746;2023-03-15T10:34:48;98432.97;;;12.42;49.59
4745;BME280;2386;42.138;24.746;2023-03-15T10:37:16;98432.16;;;12.36;49.38
4745;BME280;2386;42.138;24.746;2023-03-15T10:39:45;98435.97;;;12.50;49.22
4745;BME280;2386;42.138;24.746;2023-03-15T10:42:26;98426.13;;;12.85;48.29
4745;BME280;2386;42.138;24.746;2023-03-15T10:44:52;98415.19;;;13.10;49.59
4745;BME280;2386;42.138;24.746;2023-03-15T10:47:19;98413.00;;;13.18;48.21
4745;BME280;2386;42.138;24.746;2023-03-15T10:49:45;98405.91;;;13.27;48.11
4745;BME280;2386;42.138;24.746;2023-03-15T10:52:33;98410.59;;;12.80;48.63
4745;BME280;2386;42.138;24.746;2023-03-15T10:55:15;98399.91;;;13.14;48.09
4745;BME280;2386;42.138;24.746;2023-03-15T10:57:55;98402.81;;;13.43;47.90
4745;BME280;2386;42.138;24.746;2023-03-15T11:00:31;98412.78;;;13.68;46.88
4745;BME280;2386;42.138;24.746;2023-03-15T11:05:44;98405.22;;;13.50;46.49
4745;BME280;2386;42.138;24.746;2023-03-15T11:08:15;98394.25;;;12.96;47.88
4745;BME280;2386;42.138;24.746;2023-03-15T11:10:41;98402.38;;;13.16;47.19
4745;BME280;2386;42.138;24.746;2023-03-15T11:16:01;98408.78;;;13.51;47.42
4745;BME280;2386;42.138;24.746;2023-03-15T11:18:35;98405.50;;;13.48;46.81
4745;BME280;2386;42.138;24.746;2023-03-15T11:21:04;98396.34;;;13.34;47.33
4745;BME280;2386;42.138;24.746;2023-03-15T11:23:35;98404.00;;;13.22;48.00
4745;BME280;2386;42.138;24.746;2023-03-15T11:26:02;98398.78;;;13.36;47.22
4745;BME280;2386;42.138;24.746;2023-03-15T11:28:31;98399.94;;;13.04;47.76
4745;BME280;2386;42.138;24.746;2023-03-15T11:30:58;98390.34;;;13.32;47.93
4745;BME280;2386;42.138;24.746;2023-03-15T11:33:36;98390.97;;;13.04;48.56
4745;BME280;2386;42.138;24.746;2023-03-15T11:36:06;98386.25;;;13.35;48.23
4745;BME280;2386;42.138;24.746;2023-03-15T11:38:40;98385.09;;;13.41;54.09
4745;BME280;2386;42.138;24.746;2023-03-15T11:41:35;98389.94;;;13.59;48.73
4745;BME280;2386;42.138;24.746;2023-03-15T11:47:08;98389.00;;;13.30;48.46
4745;BME280;2386;42.138;24.746;2023-03-15T11:49:49;98376.63;;;12.73;49.28
4745;BME280;2386;42.138;24.746;2023-03-15T11:52:16;98373.81;;;13.03;49.43
4745;BME280;2386;42.138;24.746;2023-03-15T11:54:45;98366.69;;;13.23;49.29
4745;BME280;2386;42.138;24.746;2023-03-15T11:57:43;98363.66;;;13.34;49.42
4745;BME280;2386;42.138;24.746;2023-03-15T12:03:24;98358.81;;;13.11;49.38
4745;BME280;2386;42.138;24.746;2023-03-15T12:05:51;98357.44;;;13.13;49.25
4745;BME280;2386;42.138;24.746;2023-03-15T12:10:46;98350.97;;;12.99;49.46
4745;BME280;2386;42.138;24.746;2023-03-15T12:13:28;98345.91;;;12.62;50.83
4745;BME280;2386;42.138;24.746;2023-03-15T12:15:54;98334.69;;;12.79;50.45
4745;BME280;2386;42.138;24.746;2023-03-15T12:18:28;98339.34;;;12.73;51.45
4745;BME280;2386;42.138;24.746;2023-03-15T12:21:08;98340.66;;;12.86;51.12
4745;BME280;2386;42.138;24.746;2023-03-15T12:23:57;98333.63;;;12.70;51.44
4745;BME280;2386;42.138;24.746;2023-03-15T12:26:37;98336.94;;;12.62;51.41
4745;BME280;2386;42.138;24.746;2023-03-15T12:29:06;98340.41;;;12.77;51.20
4745;BME280;2386;42.138;24.746;2023-03-15T12:37:07;98326.50;;;12.89;50.21
4745;BME280;2386;42.138;24.746;2023-03-15T12:39:38;98323.47;;;12.96;49.03
4745;BME280;2386;42.138;24.746;2023-03-15T12:42:04;98321.00;;;13.04;49.15
4745;BME280;2386;42.138;24.746;2023-03-15T12:47:04;98305.72;;;13.19;48.78
4745;BME280;2386;42.138;24.746;2023-03-15T12:49:34;98317.75;;;12.97;48.69
4745;BME280;2386;42.138;24.746;2023-03-15T12:54:42;98311.75;;;13.05;48.78
4745;BME280;2386;42.138;24.746;2023-03-15T12:57:13;98317.13;;;13.15;48.47
4745;BME280;2386;42.138;24.746;2023-03-15T12:59:43;98310.31;;;13.23;47.01
4745;BME280;2386;42.138;24.746;2023-03-15T13:02:34;98309.28;;;13.04;46.96
4745;BME280;2386;42.138;24.746;2023-03-15T13:05:11;98311.47;;;13.07;47.31
4745;BME280;2386;42.138;24.746;2023-03-15T13:13:03;98316.97;;;12.87;47.59
4745;BME280;2386;42.138;24.746;2023-03-15T13:18:25;98308.63;;;12.63;48.67
4745;BME280;2386;42.138;24.746;2023-03-15T13:21:08;98298.75;;;12.82;48.70
4745;BME280;2386;42.138;24.746;2023-03-15T13:23:38;98303.91;;;12.94;48.20
4745;BME280;2386;42.138;24.746;2023-03-15T13:28:37;98290.41;;;13.33;47.38
4745;BME280;2386;42.138;24.746;2023-03-15T13:31:30;98290.84;;;13.45;47.25
4745;BME280;2386;42.138;24.746;2023-03-15T13:34:04;98294.13;;;13.42;47.13
4745;BME280;2386;42.138;24.746;2023-03-15T13:36:40;98282.59;;;13.16;47.62
4745;BME280;2386;42.138;24.746;2023-03-15T13:39:18;98295.19;;;13.46;47.57
4745;BME280;2386;42.138;24.746;2023-03-15T13:41:44;98280.63;;;13.27;47.66
4745;BME280;2386;42.138;24.746;2023-03-15T13:44:19;98277.72;;;13.52;47.80
4745;BME280;2386;42.138;24.746;2023-03-15T13:46:47;98277.66;;;13.62;47.17
4745;BME280;2386;42.138;24.746;2023-03-15T13:49:13;98268.59;;;13.72;46.05
4745;BME280;2386;42.138;24.746;2023-03-15T13:51:39;98268.38;;;13.63;46.39
4745;BME280;2386;42.138;24.746;2023-03-15T13:54:10;98279.09;;;13.89;45.58
4745;BME280;2386;42.138;24.746;2023-03-15T13:57:05;98274.31;;;13.70;46.01
4745;BME280;2386;42.138;24.746;2023-03-15T13:59:34;98290.75;;;13.60;46.26
4745;BME280;2386;42.138;24.746;2023-03-15T14:02:03;98285.38;;;13.45;47.01
4745;BME280;2386;42.138;24.746;2023-03-15T14:04:34;98263.88;;;13.43;46.84
4745;BME280;2386;42.138;24.746;2023-03-15T14:07:12;98266.53;;;13.54;46.79
4745;BME280;2386;42.138;24.746;2023-03-15T14:09:43;98261.88;;;13.59;47.13
4745;BME280;2386;42.138;24.746;2023-03-15T14:12:20;98271.00;;;13.78;47.14
4745;BME280;2386;42.138;24.746;2023-03-15T14:14:51;98263.00;;;13.53;46.33
4745;BME280;2386;42.138;24.746;2023-03-15T14:17:24;98271.13;;;13.14;46.76